sensor_id;sensor_type;location;lat;lon;timestamp;pressure;altitude;pressure_sealevel;temperature;humidity
22440;BME280;11387;51.612;7.210;2023-03-23T00:00:25;99601.47;;;9.68;100.00
22440;BME280;11387;51.612;7.210;2023-03-23T00:02:53;99595.84;;;9.73;100.00
22440;BME280;11387;51.612;7.210;2023-03-23T00:08:16;99602.75;;;9.79;100.00
22440;BME280;11387;51.612;7.210;2023-03-23T00:10:48;99597.94;;;9.76;100.00
22440;BME280;11387;51.612;7.210;2023-03-23T00:13:15;99599.56;;;9.77;100.00
22440;BME280;11387;51.612;7.210;2023-03-23T00:15:47;99590.56;;;9.86;100.00
22440;BME280;11387;51.612;7.210;2023-03-23T00:18:18;99590.22;;;9.78;100.00
22440;BME280;11387;51.612;7.210;2023-03-23T00:20:48;99595.69;;;9.78;100.00
22440;BME280;11387;51.612;7.210;2023-03-23T00:23:17;99589.75;;;9.76;100.00
22440;BME280;11387;51.612;7.210;2023-03-23T00:25:48;99574.81;;;9.83;100.00
22440;BME280;11387;51.612;7.210;2023-03-23T00:28:16;99570.94;;;9.84;100.00
22440;BME280;11387;51.612;7.210;2023-03-23T00:30:44;99564.50;;;9.79;100.00
22440;BME280;11387;51.612;7.210;2023-03-23T00:33:13;99560.34;;;9.82;100.00
22440;BME280;11387;51.612;7.210;2023-03-23T00:35:43;99566.28;;;9.84;100.00
22440;BME280;11387;51.612;7.210;2023-03-23T00:38:10;99570.94;;;9.84;100.00
22440;BME280;11387;51.612;7.210;2023-03-23T00:40:38;99562.78;;;9.92;100.00
22440;BME280;11387;51.612;7.210;2023-03-23T00:43:05;99548.78;;;9.85;100.00
22440;BME280;11387;51.612;7.210;2023-03-23T00:45:34;99547.34;;;9.88;100.00
22440;BME280;11387;51.612;7.210;2023-03-23T00:48:02;99545.25;;;9.93;100.00
22440;BME280;11387;51.612;7.210;2023-03-23T00:50:31;99557.47;;;9.96;100.00
22440;BME280;11387;51.612;7.210;2023-03-23T00:52:59;99554.91;;;9.91;100.00
22440;BME280;11387;51.612;7.210;2023-03-23T00:55:26;99559.09;;;9.97;100.00
22440;BME280;11387;51.612;7.210;2023-03-23T00:57:54;99563.75;;;10.05;100.00
22440;BME280;11387;51.612;7.210;2023-03-23T01:00:21;99557.31;;;10.09;100.00
22440;BME280;11387;51.612;7.210;2023-03-23T01:02:49;99554.44;;;10.06;100.00
22440;BME280;11387;51.612;7.210;2023-03-23T01:05:18;99554.25;;;10.11;100.00
22440;BME280;11387;51.612;7.210;2023-03-23T01:07:47;99549.13;;;10.18;100.00
22440;BME280;11387;51.612;7.210;2023-03-23T01:10:15;99542.72;;;10.31;100.00
22440;BME280;11387;51.612;7.210;2023-03-23T01:12:44;99555.91;;;10.29;100.00
22440;BME280;11387;51.612;7.210;2023-03-23T01:15:23;99548.50;;;10.38;99.66
22440;BME280;11387;51.612;7.210;2023-03-23T01:17:51;99540.44;;;10.51;98.94
22440;BME280;11387;51.612;7.210;2023-03-23T01:20:18;99531.25;;;10.55;97.61
22440;BME280;11387;51.612;7.210;2023-03-23T01:22:47;99543.47;;;10.66;96.52
22440;BME280;11387;51.612;7.210;2023-03-23T01:25:15;99558.38;;;10.77;95.15
22440;BME280;11387;51.612;7.210;2023-03-23T01:27:42;99549.38;;;10.77;94.79
22440;BME280;11387;51.612;7.210;2023-03-23T01:30:11;99561.94;;;10.78;95.09
22440;BME280;11387;51.612;7.210;2023-03-23T01:32:39;99559.97;;;10.87;93.84
22440;BME280;11387;51.612;7.210;2023-03-23T01:35:07;99550.47;;;10.93;93.12
22440;BME280;11387;51.612;7.210;2023-03-23T01:37:35;99549.50;;;10.98;92.11
22440;BME280;11387;51.612;7.210;2023-03-23T01:40:05;99537.75;;;10.97;91.54
22440;BME280;11387;51.612;7.210;2023-03-23T01:42:35;99532.53;;;11.04;90.29
22440;BME280;11387;51.612;7.210;2023-03-23T01:45:28;99516.06;;;11.22;88.75
22440;BME280;11387;51.612;7.210;2023-03-23T01:48:07;99466.13;;;11.25;88.55
22440;BME280;11387;51.612;7.210;2023-03-23T01:50:43;99472.25;;;11.22;88.36
22440;BME280;11387;51.612;7.210;2023-03-23T01:53:12;99487.38;;;11.28;88.15
22440;BME280;11387;51.612;7.210;2023-03-23T01:55:43;99480.13;;;11.23;88.08
22440;BME280;11387;51.612;7.210;2023-03-23T01:58:14;99467.25;;;11.24;87.69
22440;BME280;11387;51.612;7.210;2023-03-23T02:00:44;99470.00;;;11.24;87.29
22440;BME280;11387;51.612;7.210;2023-03-23T02:03:12;99472.06;;;11.27;86.94
22440;BME280;11387;51.612;7.210;2023-03-23T02:05:42;99474.81;;;11.27;86.37
22440;BME280;11387;51.612;7.210;2023-03-23T02:08:11;99465.25;;;11.33;86.50
22440;BME280;11387;51.612;7.210;2023-03-23T02:10:42;99482.63;;;11.37;85.11
22440;BME280;11387;51.612;7.210;2023-03-23T02:13:11;99473.59;;;11.36;84.96
22440;BME280;11387;51.612;7.210;2023-03-23T02:15:46;99476.66;;;11.35;85.51
22440;BME280;11387;51.612;7.210;2023-03-23T02:18:26;99468.94;;;11.37;84.44
22440;BME280;11387;51.612;7.210;2023-03-23T02:21:14;99460.38;;;11.38;84.41
22440;BME280;11387;51.612;7.210;2023-03-23T02:23:56;99482.28;;;11.38;83.75
22440;BME280;11387;51.612;7.210;2023-03-23T02:26:38;99476.16;;;11.41;83.73
22440;BME280;11387;51.612;7.210;2023-03-23T02:29:27;99480.81;;;11.41;83.31
22440;BME280;11387;51.612;7.210;2023-03-23T02:32:03;99481.47;;;11.38;83.88
22440;BME280;11387;51.612;7.210;2023-03-23T02:34:38;99471.34;;;11.38;84.35
22440;BME280;11387;51.612;7.210;2023-03-23T02:37:11;99476.00;;;11.38;84.27
22440;BME280;11387;51.612;7.210;2023-03-23T02:39:43;99468.94;;;11.37;84.94
22440;BME280;11387;51.612;7.210;2023-03-23T02:42:15;99457.78;;;11.42;84.85
22440;BME280;11387;51.612;7.210;2023-03-23T02:44:45;99460.25;;;11.35;85.16
22440;BME280;11387;51.612;7.210;2023-03-23T02:47:17;99464.13;;;11.34;85.36
22440;BME280;11387;51.612;7.210;2023-03-23T02:49:50;99450.91;;;11.36;85.73
22440;BME280;11387;51.612;7.210;2023-03-23T02:52:21;99459.50;;;11.26;86.49
22440;BME280;11387;51.612;7.210;2023-03-23T02:54:51;99457.56;;;11.26;86.91
22440;BME280;11387;51.612;7.210;2023-03-23T02:57:20;99426.31;;;11.27;86.84
22440;BME280;11387;51.612;7.210;2023-03-23T02:59:47;99420.03;;;11.27;86.87
22440;BME280;11387;51.612;7.210;2023-03-23T03:02:17;99415.75;;;11.17;87.77
22440;BME280;11387;51.612;7.210;2023-03-23T03:04:51;99440.88;;;11.19;88.09
22440;BME280;11387;51.612;7.210;2023-03-23T03:07:50;99441.38;;;11.12;88.15
22440;BME280;11387;51.612;7.210;2023-03-23T03:10:25;99450.88;;;11.15;87.94
22440;BME280;11387;51.612;7.210;2023-03-23T03:13:01;99435.91;;;11.12;88.39
22440;BME280;11387;51.612;7.210;2023-03-23T03:15:33;99447.97;;;11.11;88.27
22440;BME280;11387;51.612;7.210;2023-03-23T03:18:10;99445.56;;;11.10;88.15
22440;BME280;11387;51.612;7.210;2023-03-23T03:20:45;99430.94;;;11.06;88.40
22440;BME280;11387;51.612;7.210;2023-03-23T03:23:14;99437.41;;;11.01;88.78
22440;BME280;11387;51.612;7.210;2023-03-23T03:25:44;99434.81;;;11.05;88.41
22440;BME280;11387;51.612;7.210;2023-03-23T03:28:16;99437.88;;;11.03;88.65
22440;BME280;11387;51.612;7.210;2023-03-23T03:30:49;99435.63;;;11.05;88.65
22440;BME280;11387;51.612;7.210;2023-03-23T03:33:20;99428.53;;;11.04;88.20
22440;BME280;11387;51.612;7.210;2023-03-23T03:35:53;99432.03;;;11.13;88.05
22440;BME280;11387;51.612;7.210;2023-03-23T03:38:22;99437.22;;;11.06;87.81
22440;BME280;11387;51.612;7.210;2023-03-23T03:40:50;99428.81;;;11.11;87.86
22440;BME280;11387;51.612;7.210;2023-03-23T03:43:17;99421.75;;;11.10;87.68
22440;BME280;11387;51.612;7.210;2023-03-23T03:45:45;99426.28;;;11.06;88.06
22440;BME280;11387;51.612;7.210;2023-03-23T03:48:13;99423.34;;;11.11;87.33
22440;BME280;11387;51.612;7.210;2023-03-23T03:50:40;99428.63;;;11.17;86.51
22440;BME280;11387;51.612;7.210;2023-03-23T03:53:09;99427.84;;;11.16;86.49
22440;BME280;11387;51.612;7.210;2023-03-23T03:55:36;99423.81;;;11.13;86.01
22440;BME280;11387;51.612;7.210;2023-03-23T03:58:04;99410.13;;;11.13;85.84
22440;BME280;11387;51.612;7.210;2023-03-23T04:00:33;99416.22;;;11.19;86.02
22440;BME280;11387;51.612;7.210;2023-03-23T04:03:00;99413.50;;;11.19;85.33
22440;BME280;11387;51.612;7.210;2023-03-23T04:05:28;99412.69;;;11.19;85.49
22440;BME280;11387;51.612;7.210;2023-03-23T04:08:02;99414.28;;;11.20;85.06
22440;BME280;11387;51.612;7.210;2023-03-23T04:10:31;99410.41;;;11.21;85.05
22440;BME280;11387;51.612;7.210;2023-03-23T04:12:59;99423.78;;;11.22;84.88
22440;BME280;11387;51.612;7.210;2023-03-23T04:15:41;99416.28;;;11.31;84.26
22440;BME280;11387;51.612;7.210;2023-03-23T04:18:08;99424.31;;;11.36;83.58
22440;BME280;11387;51.612;7.210;2023-03-23T04:20:36;99421.03;;;11.43;83.22
22440;BME280;11387;51.612;7.210;2023-03-23T04:23:03;99428.59;;;11.46;82.82
22440;BME280;11387;51.612;7.210;2023-03-23T04:25:32;99423.25;;;11.50;82.66
22440;BME280;11387;51.612;7.210;2023-03-23T04:28:00;99423.13;;;11.46;82.85
22440;BME280;11387;51.612;7.210;2023-03-23T04:30:28;99435.03;;;11.50;82.64
22440;BME280;11387;51.612;7.210;2023-03-23T04:32:58;99437.56;;;11.55;82.13
22440;BME280;11387;51.612;7.210;2023-03-23T04:35:27;99426.59;;;11.55;82.28
22440;BME280;11387;51.612;7.210;2023-03-23T04:37:55;99438.97;;;11.61;82.00
22440;BME280;11387;51.612;7.210;2023-03-23T04:40:23;99433.69;;;11.56;81.67
22440;BME280;11387;51.612;7.210;2023-03-23T04:42:52;99446.03;;;11.62;81.52
22440;BME280;11387;51.612;7.210;2023-03-23T04:45:26;99452.78;;;11.65;81.59
22440;BME280;11387;51.612;7.210;2023-03-23T04:47:54;99441.72;;;11.61;81.68
22440;BME280;11387;51.612;7.210;2023-03-23T04:50:24;99442.16;;;11.63;81.28
22440;BME280;11387;51.612;7.210;2023-03-23T04:52:53;99457.34;;;11.61;81.34
22440;BME280;11387;51.612;7.210;2023-03-23T04:55:24;99450.13;;;11.56;81.61
22440;BME280;11387;51.612;7.210;2023-03-23T04:57:53;99438.97;;;11.61;81.16
22440;BME280;11387;51.612;7.210;2023-03-23T05:00:22;99444.22;;;11.66;81.28
22440;BME280;11387;51.612;7.210;2023-03-23T05:02:49;99447.84;;;11.58;81.30
22440;BME280;11387;51.612;7.210;2023-03-23T05:05:18;99434.63;;;11.60;81.34
22440;BME280;11387;51.612;7.210;2023-03-23T05:07:46;99457.22;;;11.57;81.55
22440;BME280;11387;51.612;7.210;2023-03-23T05:10:15;99451.06;;;11.60;81.18
22440;BME280;11387;51.612;7.210;2023-03-23T05:12:43;99444.78;;;11.60;81.31
22440;BME280;11387;51.612;7.210;2023-03-23T05:15:13;99451.88;;;11.61;80.97
22440;BME280;11387;51.612;7.210;2023-03-23T05:17:41;99464.41;;;11.62;80.66
22440;BME280;11387;51.612;7.210;2023-03-23T05:20:11;99458.59;;;11.63;80.45
22440;BME280;11387;51.612;7.210;2023-03-23T05:22:39;99455.31;;;11.70;79.97
22440;BME280;11387;51.612;7.210;2023-03-23T05:25:07;99463.63;;;11.61;80.49
22440;BME280;11387;51.612;7.210;2023-03-23T05:27:36;99455.31;;;11.70;79.81
22440;BME280;11387;51.612;7.210;2023-03-23T05:30:05;99451.59;;;11.74;79.21
22440;BME280;11387;51.612;7.210;2023-03-23T05:32:34;99460.00;;;11.69;79.73
22440;BME280;11387;51.612;7.210;2023-03-23T05:35:04;99462.06;;;11.72;79.34
22440;BME280;11387;51.612;7.210;2023-03-23T05:37:31;99464.00;;;11.72;79.53
22440;BME280;11387;51.612;7.210;2023-03-23T05:39:59;99453.84;;;11.72;79.28
22440;BME280;11387;51.612;7.210;2023-03-23T05:42:31;99468.69;;;11.71;79.46
22440;BME280;11387;51.612;7.210;2023-03-23T05:45:00;99464.47;;;11.74;79.55
22440;BME280;11387;51.612;7.210;2023-03-23T05:47:27;99468.22;;;11.69;79.32
22440;BME280;11387;51.612;7.210;2023-03-23T05:49:58;99471.63;;;11.66;79.70
22440;BME280;11387;51.612;7.210;2023-03-23T05:52:26;99464.00;;;11.72;79.42
22440;BME280;11387;51.612;7.210;2023-03-23T05:54:54;99480.13;;;11.73;79.33
22440;BME280;11387;51.612;7.210;2023-03-23T05:57:22;99477.91;;;11.67;79.60
22440;BME280;11387;51.612;7.210;2023-03-23T05:59:49;99458.41;;;11.68;79.62
22440;BME280;11387;51.612;7.210;2023-03-23T06:02:17;99469.50;;;11.72;79.47
22440;BME280;11387;51.612;7.210;2023-03-23T06:04:44;99478.03;;;11.70;79.42
22440;BME280;11387;51.612;7.210;2023-03-23T06:07:13;99467.69;;;11.76;78.64
22440;BME280;11387;51.612;7.210;2023-03-23T06:09:41;99469.31;;;11.77;78.89
22440;BME280;11387;51.612;7.210;2023-03-23T06:12:09;99478.03;;;11.70;79.49
22440;BME280;11387;51.612;7.210;2023-03-23T06:14:37;99474.97;;;11.72;79.64
22440;BME280;11387;51.612;7.210;2023-03-23T06:17:05;99480.44;;;11.72;79.82
22440;BME280;11387;51.612;7.210;2023-03-23T06:19:34;99476.44;;;11.69;80.38
22440;BME280;11387;51.612;7.210;2023-03-23T06:22:02;99483.38;;;11.67;80.18
22440;BME280;11387;51.612;7.210;2023-03-23T06:27:46;99481.53;;;11.59;81.04
22440;BME280;11387;51.612;7.210;2023-03-23T06:30:13;99494.75;;;11.57;81.28
22440;BME280;11387;51.612;7.210;2023-03-23T06:32:42;99495.28;;;11.50;81.75
22440;BME280;11387;51.612;7.210;2023-03-23T06:35:10;99497.06;;;11.46;82.02
22440;BME280;11387;51.612;7.210;2023-03-23T06:38:05;99499.75;;;11.55;81.00
22440;BME280;11387;51.612;7.210;2023-03-23T06:40:32;99499.56;;;11.60;81.03
22440;BME280;11387;51.612;7.210;2023-03-23T06:43:01;99498.34;;;11.69;80.66
22440;BME280;11387;51.612;7.210;2023-03-23T06:45:59;99503.31;;;11.76;79.92
22440;BME280;11387;51.612;7.210;2023-03-23T06:48:27;99483.97;;;11.81;80.11
22440;BME280;11387;51.612;7.210;2023-03-23T06:50:55;99492.38;;;11.97;78.87
22440;BME280;11387;51.612;7.210;2023-03-23T06:53:22;99488.50;;;11.98;78.96
22440;BME280;11387;51.612;7.210;2023-03-23T06:55:50;99490.38;;;12.06;78.04
22440;BME280;11387;51.612;7.210;2023-03-23T06:58:19;99511.91;;;12.16;77.43
22440;BME280;11387;51.612;7.210;2023-03-23T07:00:47;99511.91;;;12.16;77.27
22440;BME280;11387;51.612;7.210;2023-03-23T07:03:16;99505.28;;;12.17;76.70
22440;BME280;11387;51.612;7.210;2023-03-23T07:05:46;99495.44;;;12.16;76.44
22440;BME280;11387;51.612;7.210;2023-03-23T07:08:13;99509.63;;;12.18;76.59
22440;BME280;11387;51.612;7.210;2023-03-23T07:10:41;99496.41;;;12.32;75.91
22440;BME280;11387;51.612;7.210;2023-03-23T07:13:16;99499.34;;;12.27;74.91
22440;BME280;11387;51.612;7.210;2023-03-23T07:15:47;99515.09;;;12.18;75.04
22440;BME280;11387;51.612;7.210;2023-03-23T07:18:17;99504.38;;;12.25;74.89
22440;BME280;11387;51.612;7.210;2023-03-23T07:20:47;99523.22;;;12.27;75.08
22440;BME280;11387;51.612;7.210;2023-03-23T07:23:17;99519.91;;;12.21;75.42
22440;BME280;11387;51.612;7.210;2023-03-23T07:25:46;99514.53;;;12.25;74.78
22440;BME280;11387;51.612;7.210;2023-03-23T07:28:15;99514.94;;;12.35;74.64
22440;BME280;11387;51.612;7.210;2023-03-23T07:30:43;99523.88;;;12.44;74.21
22440;BME280;11387;51.612;7.210;2023-03-23T07:33:11;99524.75;;;12.36;74.13
22440;BME280;11387;51.612;7.210;2023-03-23T07:35:39;99522.56;;;12.30;74.09
22440;BME280;11387;51.612;7.210;2023-03-23T07:38:07;99523.50;;;12.34;73.70
22440;BME280;11387;51.612;7.210;2023-03-23T07:40:36;99512.41;;;12.30;74.11
22440;BME280;11387;51.612;7.210;2023-03-23T07:43:04;99521.44;;;12.31;73.65
22440;BME280;11387;51.612;7.210;2023-03-23T07:45:33;99522.03;;;12.36;73.53
22440;BME280;11387;51.612;7.210;2023-03-23T07:48:02;99520.81;;;12.46;72.38
22440;BME280;11387;51.612;7.210;2023-03-23T07:50:32;99514.31;;;12.51;72.39
22440;BME280;11387;51.612;7.210;2023-03-23T07:53:01;99531.53;;;12.39;72.54
22440;BME280;11387;51.612;7.210;2023-03-23T07:55:29;99519.06;;;12.41;72.68
22440;BME280;11387;51.612;7.210;2023-03-23T07:57:56;99536.47;;;12.45;72.87
22440;BME280;11387;51.612;7.210;2023-03-23T08:00:23;99535.66;;;12.45;72.38
22440;BME280;11387;51.612;7.210;2023-03-23T08:02:52;99549.03;;;12.46;72.48
22440;BME280;11387;51.612;7.210;2023-03-23T08:05:21;99543.34;;;12.52;72.33
22440;BME280;11387;51.612;7.210;2023-03-23T08:07:55;99550.22;;;12.58;71.89
22440;BME280;11387;51.612;7.210;2023-03-23T08:10:23;99533.50;;;12.51;72.07
22440;BME280;11387;51.612;7.210;2023-03-23T08:12:52;99536.94;;;12.47;72.13
22440;BME280;11387;51.612;7.210;2023-03-23T08:15:20;99539.91;;;12.55;71.66
22440;BME280;11387;51.612;7.210;2023-03-23T08:17:49;99537.63;;;12.57;71.09
22440;BME280;11387;51.612;7.210;2023-03-23T08:20:18;99529.47;;;12.81;70.88
22440;BME280;11387;51.612;7.210;2023-03-23T08:22:54;99552.00;;;12.87;69.67
22440;BME280;11387;51.612;7.210;2023-03-23T08:25:23;99558.06;;;12.80;69.82
22440;BME280;11387;51.612;7.210;2023-03-23T08:27:52;99549.84;;;12.92;69.12
22440;BME280;11387;51.612;7.210;2023-03-23T08:30:21;99527.03;;;13.25;68.61
22440;BME280;11387;51.612;7.210;2023-03-23T08:32:51;99542.63;;;13.45;67.96
22440;BME280;11387;51.612;7.210;2023-03-23T08:35:19;99536.19;;;13.41;67.36
22440;BME280;11387;51.612;7.210;2023-03-23T08:37:47;99535.88;;;13.42;67.45
22440;BME280;11387;51.612;7.210;2023-03-23T08:40:20;99538.09;;;13.77;66.21
22440;BME280;11387;51.612;7.210;2023-03-23T08:42:49;99545.22;;;13.66;66.01
22440;BME280;11387;51.612;7.210;2023-03-23T08:45:19;99509.88;;;13.40;66.19
22440;BME280;11387;51.612;7.210;2023-03-23T08:47:48;99547.84;;;13.50;66.32
22440;BME280;11387;51.612;7.210;2023-03-23T08:50:19;99534.38;;;13.45;66.59
22440;BME280;11387;51.612;7.210;2023-03-23T08:52:47;99549.81;;;13.37;66.67
22440;BME280;11387;51.612;7.210;2023-03-23T08:55:16;99550.75;;;13.41;66.46
22440;BME280;11387;51.612;7.210;2023-03-23T08:57:45;99549.69;;;13.34;66.68
22440;BME280;11387;51.612;7.210;2023-03-23T09:00:18;99540.31;;;13.35;66.67
22440;BME280;11387;51.612;7.210;2023-03-23T09:02:49;99575.25;;;13.01;67.14
22440;BME280;11387;51.612;7.210;2023-03-23T09:05:18;99564.72;;;12.91;67.75
22440;BME280;11387;51.612;7.210;2023-03-23T09:07:50;99565.63;;;12.95;67.82
22440;BME280;11387;51.612;7.210;2023-03-23T09:10:18;99562.91;;;12.95;67.84
22440;BME280;11387;51.612;7.210;2023-03-23T09:12:47;99558.66;;;12.98;67.65
22440;BME280;11387;51.612;7.210;2023-03-23T09:15:17;99574.09;;;12.90;67.89
22440;BME280;11387;51.612;7.210;2023-03-23T09:17:46;99563.09;;;12.78;67.91
22440;BME280;11387;51.612;7.210;2023-03-23T09:20:16;99568.78;;;12.73;68.69
22440;BME280;11387;51.612;7.210;2023-03-23T09:22:46;99568.78;;;12.73;68.57
22440;BME280;11387;51.612;7.210;2023-03-23T09:25:17;99576.81;;;12.78;68.36
22440;BME280;11387;51.612;7.210;2023-03-23T09:27:51;99581.25;;;12.70;68.52
22440;BME280;11387;51.612;7.210;2023-03-23T09:30:24;99574.69;;;12.63;69.06
22440;BME280;11387;51.612;7.210;2023-03-23T09:32:52;99571.31;;;12.78;68.29
22440;BME280;11387;51.612;7.210;2023-03-23T09:35:20;99579.63;;;13.02;67.77
22440;BME280;11387;51.612;7.210;2023-03-23T09:37:49;99578.53;;;13.28;66.62
22440;BME280;11387;51.612;7.210;2023-03-23T09:40:17;99593.06;;;13.28;66.57
22440;BME280;11387;51.612;7.210;2023-03-23T09:43:08;99591.22;;;13.20;66.56
22440;BME280;11387;51.612;7.210;2023-03-23T09:45:43;99608.75;;;13.28;66.64
22440;BME280;11387;51.612;7.210;2023-03-23T09:48:27;99617.25;;;13.35;67.41
22440;BME280;11387;51.612;7.210;2023-03-23T09:50:58;99622.63;;;12.98;70.22
22440;BME280;11387;51.612;7.210;2023-03-23T09:53:28;99651.25;;;12.56;74.90
22440;BME280;11387;51.612;7.210;2023-03-23T09:56:01;99662.16;;;11.93;80.88
22440;BME280;11387;51.612;7.210;2023-03-23T09:58:31;99658.69;;;11.37;85.60
22440;BME280;11387;51.612;7.210;2023-03-23T10:01:02;99665.56;;;10.71;85.49
22440;BME280;11387;51.612;7.210;2023-03-23T10:03:31;99683.91;;;10.36;87.99
22440;BME280;11387;51.612;7.210;2023-03-23T10:06:01;99686.91;;;10.08;91.19
22440;BME280;11387;51.612;7.210;2023-03-23T10:08:29;99675.59;;;9.93;90.22
22440;BME280;11387;51.612;7.210;2023-03-23T10:10:58;99676.41;;;9.93;90.77
22440;BME280;11387;51.612;7.210;2023-03-23T10:13:43;99668.19;;;9.93;93.48
22440;BME280;11387;51.612;7.210;2023-03-23T10:16:17;99660.13;;;9.79;94.48
22440;BME280;11387;51.612;7.210;2023-03-23T10:18:47;99677.81;;;9.82;92.71
22440;BME280;11387;51.612;7.210;2023-03-23T10:21:17;99681.81;;;9.85;93.61
22440;BME280;11387;51.612;7.210;2023-03-23T10:23:51;99680.16;;;9.66;93.39
22440;BME280;11387;51.612;7.210;2023-03-23T10:26:22;99684.03;;;9.65;93.50
22440;BME280;11387;51.612;7.210;2023-03-23T10:28:57;99693.97;;;9.61;93.40
22440;BME280;11387;51.612;7.210;2023-03-23T10:31:27;99687.50;;;9.57;94.59
22440;BME280;11387;51.612;7.210;2023-03-23T10:33:57;99696.63;;;9.44;94.60
22440;BME280;11387;51.612;7.210;2023-03-23T10:36:27;99703.72;;;9.23;96.41
22440;BME280;11387;51.612;7.210;2023-03-23T10:38:57;99697.81;;;9.29;96.61
22440;BME280;11387;51.612;7.210;2023-03-23T10:41:25;99688.22;;;9.71;96.22
22440;BME280;11387;51.612;7.210;2023-03-23T10:43:52;99692.19;;;10.05;93.67
22440;BME280;11387;51.612;7.210;2023-03-23T10:46:29;99702.28;;;9.96;94.73
22440;BME280;11387;51.612;7.210;2023-03-23T10:48:59;99718.41;;;9.66;97.14
22440;BME280;11387;51.612;7.210;2023-03-23T10:51:30;99702.16;;;9.61;98.39
22440;BME280;11387;51.612;7.210;2023-03-23T10:54:00;99698.84;;;9.82;97.66
22440;BME280;11387;51.612;7.210;2023-03-23T10:56:29;99708.34;;;9.84;96.33
22440;BME280;11387;51.612;7.210;2023-03-23T10:59:10;99703.28;;;9.60;97.01
22440;BME280;11387;51.612;7.210;2023-03-23T11:01:41;99703.75;;;9.62;98.13
22440;BME280;11387;51.612;7.210;2023-03-23T11:04:11;99717.66;;;9.74;97.88
22440;BME280;11387;51.612;7.210;2023-03-23T11:06:42;99706.00;;;10.00;98.31
22440;BME280;11387;51.612;7.210;2023-03-23T11:09:11;99710.75;;;9.86;95.82
22440;BME280;11387;51.612;7.210;2023-03-23T11:11:40;99696.75;;;9.78;96.63
22440;BME280;11387;51.612;7.210;2023-03-23T11:14:14;99702.69;;;9.80;97.13
22440;BME280;11387;51.612;7.210;2023-03-23T11:16:44;99708.72;;;9.60;95.74
22440;BME280;11387;51.612;7.210;2023-03-23T11:19:13;99708.28;;;9.36;97.52
22440;BME280;11387;51.612;7.210;2023-03-23T11:21:45;99719.47;;;9.26;97.99
22440;BME280;11387;51.612;7.210;2023-03-23T11:24:13;99711.88;;;9.14;99.07
22440;BME280;11387;51.612;7.210;2023-03-23T11:26:41;99702.88;;;9.14;99.37
22440;BME280;11387;51.612;7.210;2023-03-23T11:29:11;99724.53;;;9.19;99.87
22440;BME280;11387;51.612;7.210;2023-03-23T11:31:39;99722.94;;;9.18;100.00
22440;BME280;11387;51.612;7.210;2023-03-23T11:34:11;99724.88;;;9.17;100.00
22440;BME280;11387;51.612;7.210;2023-03-23T11:36:41;99725.91;;;9.30;100.00
22440;BME280;11387;51.612;7.210;2023-03-23T11:39:22;99728.03;;;9.10;100.00
22440;BME280;11387;51.612;7.210;2023-03-23T11:41:50;99727.25;;;9.10;100.00
22440;BME280;11387;51.612;7.210;2023-03-23T11:44:18;99706.63;;;9.26;100.00
22440;BME280;11387;51.612;7.210;2023-03-23T11:46:48;99706.72;;;9.43;100.00
22440;BME280;11387;51.612;7.210;2023-03-23T11:49:20;99704.69;;;9.27;100.00
22440;BME280;11387;51.612;7.210;2023-03-23T11:51:50;99700.47;;;9.43;100.00
22440;BME280;11387;51.612;7.210;2023-03-23T11:54:20;99696.81;;;9.56;100.00
22440;BME280;11387;51.612;7.210;2023-03-23T11:56:50;99700.28;;;9.70;100.00
22440;BME280;11387;51.612;7.210;2023-03-23T11:59:25;99710.78;;;9.55;100.00
22440;BME280;11387;51.612;7.210;2023-03-23T12:01:53;99714.69;;;9.62;100.00
22440;BME280;11387;51.612;7.210;2023-03-23T12:04:35;99708.72;;;9.60;100.00
22440;BME280;11387;51.612;7.210;2023-03-23T12:07:14;99706.84;;;9.69;100.00
22440;BME280;11387;51.612;7.210;2023-03-23T12:09:47;99698.94;;;9.59;100.00
22440;BME280;11387;51.612;7.210;2023-03-23T12:12:19;99690.38;;;9.52;100.00
22440;BME280;11387;51.612;7.210;2023-03-23T12:14:52;99686.41;;;9.58;100.00
22440;BME280;11387;51.612;7.210;2023-03-23T12:17:26;99688.72;;;9.73;100.00
22440;BME280;11387;51.612;7.210;2023-03-23T12:20:02;99699.66;;;9.73;100.00
22440;BME280;11387;51.612;7.210;2023-03-23T12:22:39;99698.78;;;9.64;100.00
22440;BME280;11387;51.612;7.210;2023-03-23T12:25:14;99698.44;;;9.57;100.00
22440;BME280;11387;51.612;7.210;2023-03-23T12:27:47;99709.50;;;9.52;100.00
22440;BME280;11387;51.612;7.210;2023-03-23T12:30:21;99703.84;;;9.49;100.00
22440;BME280;11387;51.612;7.210;2023-03-23T12:32:56;99720.22;;;9.40;100.00
22440;BME280;11387;51.612;7.210;2023-03-23T12:35:30;99737.38;;;9.40;100.00
22440;BME280;11387;51.612;7.210;2023-03-23T12:38:02;99735.34;;;9.46;100.00
22440;BME280;11387;51.612;7.210;2023-03-23T12:40:42;99728.66;;;9.61;100.00
22440;BME280;11387;51.612;7.210;2023-03-23T12:43:15;99723.31;;;9.56;100.00
22440;BME280;11387;51.612;7.210;2023-03-23T12:45:58;99715.06;;;9.69;100.00
22440;BME280;11387;51.612;7.210;2023-03-23T12:48:31;99733.59;;;9.90;100.00
22440;BME280;11387;51.612;7.210;2023-03-23T12:51:06;99723.31;;;9.87;100.00
22440;BME280;11387;51.612;7.210;2023-03-23T12:53:36;99727.41;;;10.06;100.00
22440;BME280;11387;51.612;7.210;2023-03-23T12:56:10;99720.47;;;10.09;100.00
22440;BME280;11387;51.612;7.210;2023-03-23T12:58:41;99721.44;;;10.13;100.00
22440;BME280;11387;51.612;7.210;2023-03-23T13:01:11;99722.97;;;10.28;100.00
22440;BME280;11387;51.612;7.210;2023-03-23T13:03:40;99718.50;;;10.75;100.00
22440;BME280;11387;51.612;7.210;2023-03-23T13:06:12;99711.75;;;11.62;97.81
22440;BME280;11387;51.612;7.210;2023-03-23T13:08:44;99723.31;;;11.21;97.17
22440;BME280;11387;51.612;7.210;2023-03-23T13:11:17;99714.84;;;11.61;96.96
22440;BME280;11387;51.612;7.210;2023-03-23T13:13:47;99710.75;;;11.75;94.24
22440;BME280;11387;51.612;7.210;2023-03-23T13:16:19;99698.81;;;11.89;93.17
22440;BME280;11387;51.612;7.210;2023-03-23T13:18:49;99699.66;;;12.10;92.60
22440;BME280;11387;51.612;7.210;2023-03-23T13:21:23;99697.88;;;11.85;93.18
22440;BME280;11387;51.612;7.210;2023-03-23T13:23:53;99688.84;;;11.75;92.63